createdAt,value
2022-11-24T00:03:10.025Z,67.82727
2022-11-24T00:08:11.748Z,70.77258
2022-11-24T00:13:13.379Z,69.26025
2022-11-24T00:18:15.049Z,65.97503
2022-11-24T00:23:17.452Z,70.03818
2022-11-24T00:28:19.067Z,70.67871
2022-11-24T00:33:20.725Z,72.63867
2022-11-24T00:38:22.415Z,72.71359
2022-11-24T00:43:24.211Z,72.33018
2022-11-24T00:48:25.891Z,73.38849
2022-11-24T00:53:27.671Z,70.87203
2022-11-24T00:58:29.349Z,73.75294
2022-11-24T01:03:31.045Z,72.16586
2022-11-24T01:08:32.772Z,73.29132
2022-11-24T01:13:34.481Z,71.84885
2022-11-24T01:18:36.090Z,69.24063
2022-11-24T01:23:37.740Z,69.60958
2022-11-24T01:28:44.912Z,68.67781
2022-11-24T01:33:48.599Z,69.14521
2022-11-24T01:38:50.354Z,70.34547
2022-11-24T01:43:51.994Z,68.6176
2022-11-24T01:48:53.744Z,70.58833
2022-11-24T01:53:55.432Z,74.06644
2022-11-24T01:58:57.200Z,74.39004
2022-11-24T02:03:58.964Z,73.97221
2022-11-24T02:09:00.821Z,72.73744
2022-11-24T02:14:02.528Z,74.48798
2022-11-24T02:19:04.275Z,73.60447
2022-11-24T02:24:06.047Z,74.42306
2022-11-24T02:29:07.856Z,73.93256
2022-11-24T02:34:09.722Z,74.87287
2022-11-24T02:39:11.447Z,71.89694
2022-11-24T02:44:13.303Z,74.16811
2022-11-24T02:49:15.035Z,73.72075
2022-11-24T02:54:16.721Z,75.01847
2022-11-24T02:59:18.473Z,73.10121
2022-11-24T03:04:20.172Z,72.13072
2022-11-24T03:09:21.925Z,72.58359
2022-11-24T03:14:23.591Z,74.44188
2022-11-24T03:19:25.359Z,74.9042
2022-11-24T03:24:27.072Z,73.93576
2022-11-24T03:29:28.786Z,73.77208
2022-11-24T03:34:30.812Z,72.41591
2022-11-24T03:39:32.774Z,71.31323
2022-11-24T03:44:34.831Z,69.68528
2022-11-24T03:49:36.806Z,70.71787
2022-11-24T03:54:38.491Z,70.91782
2022-11-24T03:59:40.259Z,70.47294
2022-11-24T04:04:44.717Z,71.7099
2022-11-24T04:09:50.554Z,69.94313
2022-11-24T04:14:52.375Z,70.15919
2022-11-24T04:19:54.179Z,70.5415
2022-11-24T04:24:55.930Z,72.23852
2022-11-24T04:29:57.682Z,73.80864
2022-11-24T04:34:59.401Z,72.12107
2022-11-24T04:40:01.112Z,73.67315
2022-11-24T04:45:02.803Z,74.19273
2022-11-24T04:50:04.576Z,71.4416
2022-11-24T04:55:06.333Z,73.55346
2022-11-24T05:00:08.091Z,75.09796
2022-11-24T05:05:09.869Z,73.69349
2022-11-24T05:10:11.605Z,72.55417
2022-11-24T05:15:13.582Z,71.65795
2022-11-24T05:20:15.357Z,70.91787
2022-11-24T05:25:17.090Z,71.14243
2022-11-24T05:30:18.789Z,68.64942
2022-11-24T05:35:20.535Z,68.05916
2022-11-24T05:40:22.399Z,68.05307
2022-11-24T05:45:24.077Z,68.84545
2022-11-24T05:50:25.861Z,70.30195
2022-11-24T05:55:27.603Z,71.99745
2022-11-24T06:00:29.366Z,73.14582
2022-11-24T06:05:31.197Z,72.86005
2022-11-24T06:10:32.906Z,73.1613
2022-11-24T06:15:34.630Z,70.56931
2022-11-24T06:20:36.481Z,69.43284
2022-11-24T06:25:38.189Z,70.52977
2022-11-24T06:30:39.971Z,71.84761
2022-11-24T06:35:41.900Z,72.74118
2022-11-24T06:40:43.658Z,75.56649
2022-11-24T06:45:45.454Z,75.08798
2022-11-24T06:50:47.165Z,73.83506
2022-11-24T06:55:48.936Z,75.78438
2022-11-24T07:00:50.703Z,73.63944
2022-11-24T07:05:52.407Z,71.4516
2022-11-24T07:10:54.118Z,70.50267
2022-11-24T07:15:55.799Z,70.13371
2022-11-24T07:20:57.496Z,69.8724
2022-11-24T07:26:03.723Z,70.12534
2022-11-24T07:31:08.233Z,75.36848
2022-11-24T07:36:09.904Z,73.57779
2022-11-24T07:41:11.652Z,72.61942
2022-11-24T07:46:13.551Z,73.36717
2022-11-24T07:51:15.377Z,72.6049
2022-11-24T07:56:17.166Z,71.50108
2022-11-24T08:01:19.338Z,72.74795
2022-11-24T08:06:28.511Z,74.55352
2022-11-24T08:11:34.176Z,71.90352
2022-11-24T08:16:36.142Z,73.47742
2022-11-24T08:21:37.921Z,71.63438
2022-11-24T08:26:39.657Z,71.56693
2022-11-24T08:31:41.468Z,72.8258
2022-11-24T08:36:43.134Z,74.28384
2022-11-24T08:41:44.735Z,74.0104
2022-11-24T08:46:46.424Z,75.61127
2022-11-24T08:51:48.199Z,74.89391
2022-11-24T08:56:49.929Z,73.75871
2022-11-24T09:01:51.855Z,71.32079
2022-11-24T09:06:53.587Z,73.496
2022-11-24T09:11:55.192Z,73.93921
2022-11-24T09:16:56.892Z,74.65801
2022-11-24T09:21:58.608Z,72.83453
2022-11-24T09:27:00.322Z,72.10479
2022-11-24T09:32:06.534Z,71.80212
2022-11-24T09:37:08.598Z,72.706
2022-11-24T09:42:10.331Z,73.19833
2022-11-24T09:47:12.081Z,74.84135
2022-11-24T09:52:13.786Z,75.28016
2022-11-24T09:57:15.437Z,74.90178
2022-11-24T10:02:17.205Z,73.37551
2022-11-24T10:07:18.880Z,74.74909
2022-11-24T10:12:20.598Z,72.68051
2022-11-24T10:17:22.267Z,76.48925
2022-11-24T10:22:24.078Z,76.2732
2022-11-24T10:27:25.685Z,74.50007
2022-11-24T10:32:27.336Z,73.92595
2022-11-24T10:37:29.361Z,73.90227
2022-11-24T10:42:31.314Z,73.77989
2022-11-24T10:47:33.199Z,76.28227
2022-11-24T10:52:34.894Z,75.9705
2022-11-24T10:57:36.659Z,75.44395
2022-11-24T11:02:38.475Z,73.21383
2022-11-24T11:07:40.357Z,69.39893
2022-11-24T11:12:44.361Z,68.22203
2022-11-24T11:17:47.093Z,70.31347
2022-11-24T11:22:48.954Z,72.04011
2022-11-24T11:27:50.785Z,70.85105
2022-11-24T11:38:24.522Z,69.24948
2022-11-24T11:43:26.227Z,69.03113
2022-11-24T11:48:27.956Z,71.17461
2022-11-24T11:53:29.766Z,69.07505
2022-11-24T11:58:31.726Z,70.45935
2022-11-24T12:03:33.647Z,70.80373
2022-11-24T12:08:55.942Z,71.2391
2022-11-24T12:14:05.686Z,71.83772
2022-11-24T12:19:07.536Z,72.58246
2022-11-24T12:24:09.316Z,74.51244
2022-11-24T12:29:11.104Z,75.07241
2022-11-24T12:34:12.886Z,73.46899
2022-11-24T12:39:14.558Z,73.17369
2022-11-24T12:44:16.280Z,71.80627
2022-11-24T12:49:17.982Z,73.4996
2022-11-24T12:54:19.833Z,71.56661
2022-11-24T12:59:21.652Z,70.85896
2022-11-24T13:04:23.305Z,72.51196
2022-11-24T13:09:25.014Z,72.33366
2022-11-24T13:14:26.670Z,74.19805
2022-11-24T13:19:28.398Z,73.2248
2022-11-24T13:24:30.082Z,73.53567
2022-11-24T13:29:31.740Z,71.24176
2022-11-24T13:34:33.795Z,70.33486
2022-11-24T13:39:39.158Z,70.49804
2022-11-24T13:44:43.752Z,72.87489
2022-11-24T13:49:45.710Z,73.53091
2022-11-24T13:54:47.463Z,70.85798
2022-11-24T13:59:49.176Z,70.56958
2022-11-24T14:04:51.029Z,70.27713
2022-11-24T14:09:52.673Z,70.0486
2022-11-24T14:14:54.299Z,70.84944
2022-11-24T14:19:55.924Z,71.22217
2022-11-24T14:24:57.548Z,72.07006
2022-11-24T14:29:59.180Z,72.61367
2022-11-24T14:35:01.053Z,70.26965
2022-11-24T14:40:02.793Z,71.1565
2022-11-24T14:45:04.564Z,71.56553
2022-11-24T14:50:06.276Z,69.92082
2022-11-24T14:55:22.496Z,72.33449
2022-11-24T15:00:25.020Z,73.82621
2022-11-24T15:05:26.825Z,74.69995
2022-11-24T15:10:33.431Z,75.71161
2022-11-24T15:15:35.716Z,75.95321
2022-11-24T15:20:37.405Z,72.84203
2022-11-24T15:25:39.014Z,71.83982
2022-11-24T15:30:40.787Z,73.57821
2022-11-24T15:35:42.405Z,76.98139
2022-11-24T15:40:44.145Z,75.6371
2022-11-24T15:45:45.832Z,76.677
2022-11-24T15:50:47.642Z,77.1516
2022-11-24T15:55:49.271Z,74.10912
2022-11-24T16:00:51.004Z,73.4662
2022-11-24T16:05:52.703Z,73.2222
2022-11-24T16:10:54.313Z,73.06375
2022-11-24T16:15:56.017Z,70.31278
2022-11-24T16:20:57.744Z,68.23291
2022-11-24T16:25:59.571Z,68.31618
2022-11-24T16:31:01.559Z,68.57757
2022-11-24T16:36:03.176Z,68.05528
2022-11-24T16:41:04.825Z,68.48281
2022-11-24T16:46:06.476Z,68.29203
2022-11-24T16:51:08.102Z,70.17114
2022-11-24T16:56:09.730Z,72.11094
2022-11-24T17:01:11.427Z,71.28919
2022-11-24T17:06:13.132Z,70.86764
2022-11-24T17:11:14.744Z,70.7777
2022-11-24T17:16:16.480Z,69.82728
2022-11-24T17:21:18.141Z,68.19264
2022-11-24T17:26:19.830Z,66.96457
2022-11-24T17:31:21.646Z,66.89558
2022-11-24T17:36:23.334Z,67.3846
2022-11-24T17:41:25.102Z,67.03998
2022-11-24T17:46:26.936Z,65.63324
2022-11-24T17:51:28.841Z,67.28202
2022-11-24T17:56:30.466Z,66.37545
2022-11-24T18:01:32.151Z,67.32812
2022-11-24T18:06:33.859Z,69.63116
2022-11-24T18:11:35.749Z,68.21138
2022-11-24T18:16:37.545Z,66.69263
2022-11-24T18:21:39.245Z,66.61135
2022-11-24T18:26:40.859Z,66.43026
2022-11-24T18:31:42.607Z,66.36177
2022-11-24T18:36:44.324Z,65.37001
2022-11-24T18:41:45.993Z,69.04821
2022-11-24T18:46:47.633Z,68.59393
2022-11-24T18:51:49.475Z,68.44629
2022-11-24T18:56:51.108Z,67.09967
2022-11-24T19:01:52.917Z,65.89918
2022-11-24T19:06:54.575Z,65.50565
2022-11-24T19:11:56.174Z,65.96905
2022-11-24T19:16:57.896Z,65.91099
2022-11-24T19:21:59.647Z,64.09591
2022-11-24T19:27:01.258Z,62.16115
2022-11-24T19:32:03.183Z,62.95659
2022-11-24T19:37:04.883Z,61.78898
2022-11-24T19:42:06.623Z,61.05899
2022-11-24T19:47:08.614Z,58.77425
2022-11-24T19:52:10.219Z,59.63459
2022-11-24T19:57:12.032Z,57.60253
2022-11-24T20:02:13.716Z,58.5403
2022-11-24T20:07:15.516Z,57.63211
2022-11-24T20:12:17.211Z,58.65961
2022-11-24T20:17:18.831Z,55.26376
2022-11-24T20:22:20.484Z,57.38537
2022-11-24T20:27:22.168Z,56.31435
2022-11-24T20:32:23.853Z,54.2714
2022-11-24T20:37:25.519Z,52.98983
2022-11-24T20:42:27.224Z,54.76348
2022-11-24T20:47:28.848Z,53.74967
2022-11-24T20:52:30.541Z,54.98341
2022-11-24T20:57:32.405Z,55.3465
2022-11-24T21:02:34.117Z,54.27204
2022-11-24T21:07:35.963Z,56.47852
2022-11-24T21:12:37.723Z,56.25605
2022-11-24T21:17:39.373Z,57.35591
2022-11-24T21:22:40.982Z,57.01836
2022-11-24T21:27:42.629Z,58.75548
2022-11-24T21:32:44.311Z,58.7936
2022-11-24T21:37:45.958Z,61.18467
2022-11-24T21:42:47.636Z,60.722
2022-11-24T21:47:49.292Z,60.73685
2022-11-24T21:52:50.933Z,60.11653
2022-11-24T21:57:52.630Z,58.61734
2022-11-24T22:02:54.298Z,61.91569
2022-11-24T22:07:55.966Z,60.40557
2022-11-24T22:12:57.629Z,63.01575
2022-11-24T22:17:59.276Z,63.08277
2022-11-24T22:23:00.887Z,61.54565
2022-11-24T22:28:02.505Z,65.31055
2022-11-24T22:33:04.131Z,65.99014
2022-11-24T22:38:05.809Z,66.7184
2022-11-24T22:43:07.671Z,69.63427
2022-11-24T22:48:09.322Z,67.95893
2022-11-24T22:53:10.972Z,65.84399
2022-11-24T22:58:12.587Z,66.12993
2022-11-24T23:03:14.353Z,67.50055
2022-11-24T23:08:16.048Z,67.19525
2022-11-24T23:13:17.813Z,65.6799
2022-11-24T23:18:19.464Z,65.94224
2022-11-24T23:23:21.157Z,65.42662
2022-11-24T23:28:22.836Z,66.21751
2022-11-24T23:33:24.574Z,66.10973
2022-11-24T23:38:26.317Z,65.98703
2022-11-24T23:43:27.947Z,67.25845
2022-11-24T23:48:29.579Z,67.1732
2022-11-24T23:53:31.277Z,71.29663
2022-11-24T23:58:33.020Z,73.07744
